| time (UTC) | temp F | wind direction | speed MPH | gust MPH | rain 1hr in | rain 24hr in | rain mn in | humidity % | barometer mb |
| 20260507095309 | 62 | 112 | 0.0 | 0.0 | 0.00 | 0.00 | 0.00 | 55 | 1010.8 |
| 20260507095109 | 62 | 112 | 0.0 | 0.0 | 0.00 | 0.00 | 0.00 | 55 | 1010.8 |
| 20260507094910 | 61 | 112 | 0.0 | 0.0 | 0.00 | 0.00 | 0.00 | 55 | 1010.8 |
| 20260507094709 | 61 | 112 | 2.0 | 0.0 | 0.00 | 0.00 | 0.00 | 55 | 1010.9 |
| 20260507094508 | 61 | 68 | 2.0 | 0.0 | 0.00 | 0.00 | 0.00 | 55 | 1010.9 |
| 20260507094309 | 60 | 68 | 2.0 | 0.0 | 0.00 | 0.00 | 0.00 | 56 | 1010.9 |
| 20260507094109 | 60 | 135 | 4.0 | 0.0 | 0.00 | 0.00 | 0.00 | 56 | 1010.9 |
| 20260507093808 | 60 | 135 | 4.0 | 0.0 | 0.00 | 0.00 | 0.00 | 56 | 1010.9 |
| 20260507093613 | 60 | 158 | 1.0 | 0.0 | 0.00 | 0.00 | 0.00 | 56 | 1010.9 |
| 20260507093407 | 60 | 158 | 1.0 | 0.0 | 0.00 | 0.00 | 0.00 | 55 | 1010.9 |
| 20260507093207 | 60 | 112 | 6.0 | 0.0 | 0.00 | 0.00 | 0.00 | 55 | 1011.0 |
| 20260507092912 | 60 | 135 | 2.0 | 0.0 | 0.00 | 0.00 | 0.00 | 55 | 1010.9 |
| 20260507092713 | 61 | 90 | 2.0 | 0.0 | 0.00 | 0.00 | 0.00 | 56 | 1010.9 |
| 20260507092411 | 61 | 90 | 2.0 | 0.0 | 0.00 | 0.00 | 0.00 | 55 | 1010.9 |
| 20260507092208 | 61 | 158 | 7.0 | 0.0 | 0.00 | 0.00 | 0.00 | 54 | 1010.9 |
| 20260507092013 | 61 | 158 | 7.0 | 0.0 | 0.00 | 0.00 | 0.00 | 55 | 1010.9 |
| 20260507091807 | 61 | 158 | 6.0 | 0.0 | 0.00 | 0.00 | 0.00 | 55 | 1010.8 |
| 20260507091608 | 61 | 158 | 6.0 | 0.0 | 0.00 | 0.00 | 0.00 | 55 | 1010.9 |
| 20260507091406 | 61 | 158 | 6.0 | 0.0 | 0.00 | 0.00 | 0.00 | 55 | 1010.9 |
| 20260507091209 | 61 | 158 | 6.0 | 0.0 | 0.00 | 0.00 | 0.00 | 55 | 1010.9 |
| 20260507091008 | 61 | 158 | 6.0 | 0.0 | 0.00 | 0.00 | 0.00 | 55 | 1010.7 |
| 20260507090811 | 61 | 158 | 4.0 | 0.0 | 0.00 | 0.00 | 0.00 | 55 | 1010.8 |
| 20260507090608 | 61 | 158 | 4.0 | 0.0 | 0.00 | 0.00 | 0.00 | 56 | 1010.7 |
| 20260507090407 | 61 | 158 | 4.0 | 0.0 | 0.00 | 0.00 | 0.00 | 56 | 1010.8 |
| 20260507090212 | 60 | 135 | 3.0 | 0.0 | 0.00 | 0.00 | 0.00 | 57 | 1010.7 |
| 20260507085909 | 60 | 135 | 3.0 | 0.0 | 0.00 | 0.00 | 0.00 | 57 | 1010.6 |
| 20260507085711 | 60 | 90 | 2.0 | 0.0 | 0.00 | 0.00 | 0.00 | 56 | 1010.6 |
| 20260507085511 | 60 | 158 | 3.0 | 0.0 | 0.00 | 0.00 | 0.00 | 55 | 1010.6 |
| 20260507085309 | 60 | 112 | 6.0 | 0.0 | 0.00 | 0.00 | 0.00 | 55 | 1010.7 |
| 20260507085109 | 61 | 112 | 6.0 | 0.0 | 0.00 | 0.00 | 0.00 | 54 | 1010.7 |
| 20260507084909 | 62 | 112 | 6.0 | 0.0 | 0.00 | 0.00 | 0.00 | 54 | 1010.7 |
| 20260507084709 | 62 | 112 | 2.0 | 0.0 | 0.00 | 0.00 | 0.00 | 54 | 1010.6 |
| 20260507084509 | 62 | 112 | 3.0 | 0.0 | 0.00 | 0.00 | 0.00 | 55 | 1010.6 |
| 20260507084306 | 62 | 112 | 3.0 | 0.0 | 0.00 | 0.00 | 0.00 | 55 | 1010.6 |
| 20260507084206 | 62 | 112 | 3.0 | 0.0 | 0.00 | 0.00 | 0.00 | 55 | 1010.6 |
| 20260507084011 | 62 | 112 | 3.0 | 0.0 | 0.00 | 0.00 | 0.00 | 55 | 1010.5 |
| 20260507083811 | 62 | 112 | 3.0 | 0.0 | 0.00 | 0.00 | 0.00 | 55 | 1010.5 |
| 20260507083612 | 62 | 135 | 6.0 | 0.0 | 0.00 | 0.00 | 0.00 | 57 | 1010.5 |
| 20260507083409 | 60 | 68 | 5.0 | 0.0 | 0.00 | 0.00 | 0.00 | 57 | 1010.4 |
| 20260507083211 | 60 | 45 | 0.0 | 0.0 | 0.00 | 0.00 | 0.00 | 58 | 1010.4 |
| 20260507083013 | 60 | 112 | 1.0 | 0.0 | 0.00 | 0.00 | 0.00 | 58 | 1010.4 |
| 20260507082707 | 60 | 112 | 3.0 | 0.0 | 0.00 | 0.00 | 0.00 | 58 | 1010.4 |
| 20260507082510 | 60 | 112 | 3.0 | 0.0 | 0.00 | 0.00 | 0.00 | 58 | 1010.4 |
| 20260507082308 | 59 | 315 | 86.0 | 0.0 | 0.00 | 0.00 | 0.00 | 58 | 1010.5 |
| 20260507082110 | 59 | 315 | 86.0 | 0.0 | 0.00 | 0.00 | 0.00 | 58 | 1010.4 |
| 20260507081908 | 59 | 112 | 3.0 | 0.0 | 0.00 | 0.00 | 0.00 | 58 | 1010.4 |
| 20260507081713 | 59 | 135 | 6.0 | 0.0 | 0.00 | 0.00 | 0.00 | 58 | 1010.4 |
| 20260507081508 | 59 | 180 | 2.0 | 0.0 | 0.00 | 0.00 | 0.00 | 58 | 1010.4 |
| 20260507081309 | 59 | 135 | 3.0 | 0.0 | 0.00 | 0.00 | 0.00 | 58 | 1010.3 |
| 20260507081113 | 59 | 68 | 2.0 | 0.0 | 0.00 | 0.00 | 0.00 | 58 | 1010.4 |
| 20260507080908 | 58 | 112 | 3.0 | 0.0 | 0.00 | 0.00 | 0.00 | 59 | 1010.2 |
| 20260507080712 | 58 | 135 | 0.0 | 0.0 | 0.00 | 0.00 | 0.00 | 58 | 1010.2 |
| 20260507080512 | 58 | 135 | 0.0 | 0.0 | 0.00 | 0.00 | 0.00 | 58 | 1010.4 |
| 20260507080308 | 58 | 135 | 2.0 | 0.0 | 0.00 | 0.00 | 0.00 | 58 | 1010.3 |
| 20260507080112 | 58 | 135 | 3.0 | 0.0 | 0.00 | 0.00 | 0.00 | 58 | 1010.4 |
| 20260507075909 | 59 | 112 | 1.0 | 0.0 | 0.00 | 0.00 | 0.00 | 58 | 1010.4 |
| 20260507075709 | 59 | 112 | 1.0 | 0.0 | 0.00 | 0.00 | 0.00 | 58 | 1010.4 |
| 20260507075508 | 59 | 112 | 1.0 | 0.0 | 0.00 | 0.00 | 0.00 | 58 | 1010.3 |
| 20260507075316 | 59 | 180 | 2.0 | 0.0 | 0.00 | 0.00 | 0.00 | 57 | 1010.4 |
| 20260507075111 | 60 | 45 | 1.0 | 0.0 | 0.00 | 0.00 | 0.00 | 58 | 1010.3 |
| 20260507074909 | 60 | 45 | 1.0 | 0.0 | 0.00 | 0.00 | 0.00 | 57 | 1010.3 |
| 20260507074708 | 60 | 135 | 4.0 | 0.0 | 0.00 | 0.00 | 0.00 | 57 | 1010.2 |
| 20260507074513 | 60 | 135 | 4.0 | 0.0 | 0.00 | 0.00 | 0.00 | 57 | 1010.2 |
| 20260507074312 | 60 | 112 | 4.0 | 0.0 | 0.00 | 0.00 | 0.00 | 58 | 1010.2 |
| 20260507074112 | 60 | 135 | 1.0 | 0.0 | 0.00 | 0.00 | 0.00 | 59 | 1010.1 |
| 20260507073912 | 61 | 68 | 5.0 | 0.0 | 0.00 | 0.00 | 0.00 | 59 | 1010.2 |
| 20260507073711 | 60 | 68 | 5.0 | 0.0 | 0.00 | 0.00 | 0.00 | 59 | 1010.0 |
| 20260507073509 | 60 | 68 | 2.0 | 0.0 | 0.00 | 0.00 | 0.00 | 60 | 1010.1 |
| 20260507073436 | 60 | 68 | 2.0 | 0.0 | 0.00 | 0.00 | 0.00 | 60 | 1010.1 |
| 20260507072909 | 59 | 68 | 2.0 | 0.0 | 0.00 | 0.00 | 0.00 | 63 | 1010.0 |
| 20260507072709 | 56 | 68 | 1.0 | 0.0 | 0.00 | 0.00 | 0.00 | 65 | 1010.1 |
| 20260507072509 | 56 | 112 | 3.0 | 0.0 | 0.00 | 0.00 | 0.00 | 65 | 1010.0 |
| 20260507072311 | 56 | 90 | 3.0 | 0.0 | 0.00 | 0.00 | 0.00 | 66 | 1010.0 |
| 20260507072108 | 56 | 112 | 3.0 | 0.0 | 0.00 | 0.00 | 0.00 | 66 | 1010.1 |
| 20260507071908 | 56 | 68 | 2.0 | 0.0 | 0.00 | 0.00 | 0.00 | 66 | 1010.0 |
| 20260507071708 | 56 | 135 | 0.0 | 0.0 | 0.00 | 0.00 | 0.00 | 66 | 1010.0 |
| 20260507071511 | 56 | 135 | 1.0 | 0.0 | 0.00 | 0.00 | 0.00 | 66 | 1010.0 |
| 20260507071308 | 56 | 45 | 0.0 | 0.0 | 0.00 | 0.00 | 0.00 | 66 | 1010.0 |
| 20260507071109 | 56 | 135 | 0.0 | 0.0 | 0.00 | 0.00 | 0.00 | 66 | 1010.0 |
| 20260507070911 | 56 | 68 | 0.0 | 0.0 | 0.00 | 0.00 | 0.00 | 66 | 1010.0 |
| 20260507070707 | 56 | 68 | 0.0 | 0.0 | 0.00 | 0.00 | 0.00 | 67 | 1010.0 |
| 20260507070511 | 56 | 68 | 0.0 | 0.0 | 0.00 | 0.00 | 0.00 | 67 | 1010.0 |
| 20260507070209 | 55 | 68 | 0.0 | 0.0 | 0.00 | 0.00 | 0.00 | 67 | 1010.2 |
| 20260507070012 | 55 | 68 | 0.0 | 0.0 | 0.00 | 0.00 | 0.00 | 67 | 1010.1 |
| 20260507065838 | 55 | 68 | 0.0 | 0.0 | 0.00 | 0.00 | 0.00 | 67 | 1010.2 |
| 20260507065611 | 55 | 68 | 0.0 | 0.0 | 0.00 | 0.00 | 0.00 | 68 | 1010.2 |
| 20260507065411 | 55 | 68 | 0.0 | 0.0 | 0.00 | 0.00 | 0.00 | 68 | 1010.1 |
| 20260507065208 | 55 | 68 | 0.0 | 0.0 | 0.00 | 0.00 | 0.00 | 68 | 1010.1 |
| 20260507065109 | 55 | 68 | 0.0 | 0.0 | 0.00 | 0.00 | 0.00 | 68 | 1010.1 |
| 20260507064911 | 55 | 68 | 0.0 | 0.0 | 0.00 | 0.00 | 0.00 | 68 | 1010.1 |
| 20260507064710 | 55 | 68 | 0.0 | 0.0 | 0.00 | 0.00 | 0.00 | 68 | 1010.0 |
| 20260507064510 | 55 | 68 | 0.0 | 0.0 | 0.00 | 0.00 | 0.00 | 68 | 1010.0 |
| 20260507064309 | 55 | 68 | 0.0 | 0.0 | 0.00 | 0.00 | 0.00 | 68 | 1010.1 |
| 20260507064111 | 55 | 68 | 0.0 | 0.0 | 0.00 | 0.00 | 0.00 | 68 | 1010.1 |
| 20260507063908 | 55 | 68 | 0.0 | 0.0 | 0.00 | 0.00 | 0.00 | 68 | 1010.1 |
| 20260507063813 | 55 | 68 | 0.0 | 0.0 | 0.00 | 0.00 | 0.00 | 68 | 1010.1 |
| 20260507063609 | 55 | 68 | 0.0 | 0.0 | 0.00 | 0.00 | 0.00 | 68 | 1010.1 |
| 20260507063408 | 55 | 112 | 0.0 | 0.0 | 0.00 | 0.00 | 0.00 | 68 | 1010.1 |
| 20260507063208 | 55 | 112 | 0.0 | 0.0 | 0.00 | 0.00 | 0.00 | 68 | 1010.1 |
| 20260507063013 | 55 | 112 | 0.0 | 0.0 | 0.00 | 0.00 | 0.00 | 68 | 1010.0 |
| 20260507062813 | 55 | 112 | 0.0 | 0.0 | 0.00 | 0.00 | 0.00 | 68 | 1010.1 |
| 20260507062608 | 55 | 112 | 0.0 | 0.0 | 0.00 | 0.00 | 0.00 | 68 | 1010.2 |
| 20260507062408 | 55 | 68 | 0.0 | 0.0 | 0.00 | 0.00 | 0.00 | 69 | 1010.2 |
| 20260507062311 | 55 | 68 | 0.0 | 0.0 | 0.00 | 0.00 | 0.00 | 69 | 1010.2 |
| 20260507062112 | 55 | 68 | 0.0 | 0.0 | 0.00 | 0.00 | 0.00 | 69 | 1010.2 |
| 20260507061908 | 55 | 68 | 0.0 | 0.0 | 0.00 | 0.00 | 0.00 | 70 | 1010.2 |
| 20260507061710 | 55 | 68 | 0.0 | 0.0 | 0.00 | 0.00 | 0.00 | 72 | 1010.1 |
| 20260507061412 | 54 | 68 | 0.0 | 0.0 | 0.00 | 0.00 | 0.00 | 72 | 1010.1 |
| 20260507061209 | 53 | 68 | 0.0 | 0.0 | 0.00 | 0.00 | 0.00 | 72 | 1010.0 |
| 20260507061012 | 53 | 68 | 0.0 | 0.0 | 0.00 | 0.00 | 0.00 | 72 | 1010.0 |
| 20260507060809 | 53 | 68 | 0.0 | 0.0 | 0.00 | 0.00 | 0.00 | 73 | 1010.0 |
| 20260507060614 | 53 | 68 | 0.0 | 0.0 | 0.00 | 0.00 | 0.00 | 73 | 1010.0 |
| 20260507060409 | 53 | 68 | 0.0 | 0.0 | 0.00 | 0.00 | 0.00 | 73 | 1010.0 |
| 20260507060211 | 52 | 68 | 0.0 | 0.0 | 0.00 | 0.00 | 0.00 | 74 | 1009.9 |
| 20260507060011 | 52 | 68 | 0.0 | 0.0 | 0.00 | 0.00 | 0.00 | 74 | 1009.9 |
| 20260507055808 | 52 | 68 | 0.0 | 0.0 | 0.00 | 0.00 | 0.00 | 75 | 1009.9 |
| 20260507055607 | 51 | 68 | 0.0 | 0.0 | 0.00 | 0.00 | 0.00 | 75 | 1010.0 |
| 20260507055509 | 51 | 68 | 0.0 | 0.0 | 0.00 | 0.00 | 0.00 | 75 | 1010.0 |
| 20260507055310 | 51 | 68 | 0.0 | 0.0 | 0.00 | 0.00 | 0.00 | 76 | 1010.0 |
| 20260507055108 | 51 | 68 | 0.0 | 0.0 | 0.00 | 0.00 | 0.00 | 76 | 1009.9 |
| 20260507054911 | 51 | 68 | 0.0 | 0.0 | 0.00 | 0.00 | 0.00 | 76 | 1009.8 |
| 20260507054708 | 50 | 68 | 0.0 | 0.0 | 0.00 | 0.00 | 0.00 | 76 | 1009.9 |
| 20260507054511 | 50 | 68 | 0.0 | 0.0 | 0.00 | 0.00 | 0.00 | 77 | 1009.9 |
| 20260507054307 | 50 | 90 | 0.0 | 0.0 | 0.00 | 0.00 | 0.00 | 77 | 1009.8 |
| 20260507054209 | 50 | 90 | 0.0 | 0.0 | 0.00 | 0.00 | 0.00 | 77 | 1009.9 |
| 20260507054012 | 50 | 90 | 0.0 | 0.0 | 0.00 | 0.00 | 0.00 | 78 | 1009.8 |
| 20260507053810 | 50 | 90 | 0.0 | 0.0 | 0.00 | 0.00 | 0.00 | 78 | 1009.8 |
| 20260507053608 | 50 | 90 | 0.0 | 0.0 | 0.00 | 0.00 | 0.00 | 78 | 1009.8 |
| 20260507053413 | 50 | 90 | 0.0 | 0.0 | 0.00 | 0.00 | 0.00 | 78 | 1009.8 |
| 20260507053208 | 50 | 90 | 0.0 | 0.0 | 0.00 | 0.00 | 0.00 | 78 | 1009.8 |
| 20260507053011 | 50 | 45 | 0.0 | 0.0 | 0.00 | 0.00 | 0.00 | 78 | 1009.8 |
| 20260507052810 | 50 | 45 | 0.0 | 0.0 | 0.00 | 0.00 | 0.00 | 78 | 1009.7 |
| 20260507052608 | 49 | 45 | 0.0 | 0.0 | 0.00 | 0.00 | 0.00 | 78 | 1009.7 |
| 20260507052410 | 49 | 45 | 0.0 | 0.0 | 0.00 | 0.00 | 0.00 | 79 | 1009.6 |
| 20260507052206 | 49 | 45 | 0.0 | 0.0 | 0.00 | 0.00 | 0.00 | 79 | 1009.7 |
| 20260507052005 | 49 | 45 | 0.0 | 0.0 | 0.00 | 0.00 | 0.00 | 79 | 1009.7 |
| 20260507051710 | 49 | 45 | 0.0 | 0.0 | 0.00 | 0.00 | 0.00 | 79 | 1009.6 |
| 20260507051411 | 49 | 45 | 0.0 | 0.0 | 0.00 | 0.00 | 0.00 | 79 | 1009.6 |
| 20260507051211 | 49 | 45 | 0.0 | 0.0 | 0.00 | 0.00 | 0.00 | 79 | 1009.6 |
| 20260507051011 | 49 | 45 | 0.0 | 0.0 | 0.00 | 0.00 | 0.00 | 79 | 1009.5 |
| 20260507050809 | 49 | 292 | 0.0 | 0.0 | 0.00 | 0.00 | 0.00 | 79 | 1009.5 |
| 20260507050632 | 49 | 292 | 0.0 | 0.0 | 0.00 | 0.00 | 0.00 | 79 | 1009.5 |
| 20260507050407 | 48 | 292 | 0.0 | 0.0 | 0.00 | 0.00 | 0.00 | 79 | 1009.6 |
| 20260507050211 | 48 | 292 | 0.0 | 0.0 | 0.00 | 0.00 | 0.00 | 79 | 1009.5 |
| 20260507045914 | 48 | 292 | 0.0 | 0.0 | 0.00 | 0.00 | 0.00 | 80 | 1009.5 |
| 20260507045706 | 47 | 0 | 0.0 | 0.0 | 0.00 | 0.00 | 0.00 | 80 | 1009.5 |
| 20260507045506 | 47 | 0 | 0.0 | 0.0 | 0.00 | 0.00 | 0.00 | 80 | 1009.4 |
| 20260507045311 | 47 | 0 | 0.0 | 0.0 | 0.00 | 0.00 | 0.00 | 80 | 1009.3 |
| 20260507045113 | 47 | 0 | 0.0 | 0.0 | 0.00 | 0.00 | 0.00 | 80 | 1009.4 |
| 20260507044909 | 47 | 0 | 0.0 | 0.0 | 0.00 | 0.00 | 0.00 | 80 | 1009.4 |
| 20260507044707 | 47 | 0 | 0.0 | 0.0 | 0.00 | 0.00 | 0.00 | 80 | 1009.3 |
| 20260507044510 | 47 | 0 | 0.0 | 0.0 | 0.00 | 0.00 | 0.00 | 80 | 1009.2 |
| 20260507044312 | 47 | 0 | 0.0 | 0.0 | 0.00 | 0.00 | 0.00 | 80 | 1009.3 |
| 20260507044111 | 47 | 0 | 0.0 | 0.0 | 0.00 | 0.00 | 0.00 | 80 | 1009.2 |
| 20260507043908 | 47 | 0 | 0.0 | 0.0 | 0.00 | 0.00 | 0.00 | 80 | 1009.2 |
| 20260507043711 | 47 | 0 | 0.0 | 0.0 | 0.00 | 0.00 | 0.00 | 80 | 1009.3 |
| 20260507043512 | 47 | 0 | 0.0 | 0.0 | 0.00 | 0.00 | 0.00 | 80 | 1009.3 |
| 20260507043311 | 47 | 0 | 0.0 | 0.0 | 0.00 | 0.00 | 0.00 | 80 | 1009.4 |
| 20260507043241 | 47 | 0 | 0.0 | 0.0 | 0.00 | 0.00 | 0.00 | 80 | 1009.3 |
| 20260507043011 | 47 | 292 | 0.0 | 0.0 | 0.00 | 0.00 | 0.00 | 81 | 1009.3 |
| 20260507042807 | 47 | 292 | 0.0 | 0.0 | 0.00 | 0.00 | 0.00 | 81 | 1009.2 |
| 20260507042609 | 47 | 292 | 0.0 | 0.0 | 0.00 | 0.00 | 0.00 | 81 | 1009.2 |
| 20260507042409 | 47 | 292 | 0.0 | 0.0 | 0.00 | 0.00 | 0.00 | 81 | 1009.2 |
| 20260507042213 | 47 | 292 | 0.0 | 0.0 | 0.00 | 0.00 | 0.00 | 81 | 1009.2 |
| 20260507042008 | 46 | 292 | 0.0 | 0.0 | 0.00 | 0.00 | 0.00 | 81 | 1009.2 |
| 20260507041707 | 46 | 292 | 0.0 | 0.0 | 0.00 | 0.00 | 0.00 | 81 | 1009.1 |
| 20260507041507 | 46 | 292 | 0.0 | 0.0 | 0.00 | 0.00 | 0.00 | 81 | 1009.1 |
| 20260507041317 | 46 | 292 | 0.0 | 0.0 | 0.00 | 0.00 | 0.00 | 81 | 1009.1 |
| 20260507041109 | 46 | 292 | 0.0 | 0.0 | 0.00 | 0.00 | 0.00 | 81 | 1009.1 |
| 20260507040909 | 46 | 292 | 0.0 | 0.0 | 0.00 | 0.00 | 0.00 | 81 | 1009.0 |
| 20260507040710 | 46 | 292 | 0.0 | 0.0 | 0.00 | 0.00 | 0.00 | 81 | 1008.9 |
| 20260507040510 | 46 | 292 | 0.0 | 0.0 | 0.00 | 0.00 | 0.00 | 81 | 1009.0 |
| 20260506200212 | 52 | 248 | 0.0 | 0.0 | 0.00 | 0.00 | 0.00 | 57 | 1006.2 |
| 20260506200011 | 53 | 270 | 0.0 | 0.0 | 0.00 | 0.00 | 0.00 | 57 | 1006.2 |
| 20260506195812 | 53 | 270 | 0.0 | 0.0 | 0.00 | 0.00 | 0.00 | 56 | 1006.0 |
| 20260506195611 | 53 | 248 | 0.0 | 0.0 | 0.00 | 0.00 | 0.00 | 55 | 1006.0 |
| 20260506195308 | 53 | 270 | 0.0 | 0.0 | 0.00 | 0.00 | 0.00 | 55 | 1005.9 |
| 20260506195111 | 53 | 270 | 0.0 | 0.0 | 0.00 | 0.00 | 0.00 | 55 | 1005.7 |
| 20260506194907 | 54 | 270 | 0.0 | 0.0 | 0.00 | 0.00 | 0.00 | 55 | 1005.7 |
| 20260506194710 | 54 | 248 | 1.0 | 0.0 | 0.00 | 0.00 | 0.00 | 53 | 1005.7 |
| 20260506194411 | 55 | 248 | 0.0 | 0.0 | 0.00 | 0.00 | 0.00 | 52 | 1005.7 |
| 20260506194211 | 55 | 248 | 2.0 | 0.0 | 0.00 | 0.00 | 0.00 | 50 | 1005.6 |
| 20260506194010 | 56 | 292 | 0.0 | 0.0 | 0.00 | 0.00 | 0.00 | 49 | 1005.6 |
| 20260506193811 | 56 | 135 | 0.0 | 0.0 | 0.00 | 0.00 | 0.00 | 49 | 1005.5 |
| 20260506193609 | 56 | 270 | 0.0 | 0.0 | 0.00 | 0.00 | 0.00 | 49 | 1005.4 |
| 20260506193409 | 56 | 270 | 1.0 | 0.0 | 0.00 | 0.00 | 0.00 | 47 | 1005.3 |
| 20260506193206 | 56 | 292 | 0.0 | 0.0 | 0.00 | 0.00 | 0.00 | 48 | 1005.3 |
| 20260506193005 | 56 | 292 | 0.0 | 0.0 | 0.00 | 0.00 | 0.00 | 48 | 1005.3 |
| 20260506192815 | 56 | 292 | 0.0 | 0.0 | 0.00 | 0.00 | 0.00 | 48 | 1005.2 |
| 20260506192516 | 56 | 225 | 3.0 | 0.0 | 0.00 | 0.00 | 0.00 | 48 | 1005.2 |
| 20260506192309 | 56 | 225 | 5.0 | 0.0 | 0.00 | 0.00 | 0.00 | 48 | 1005.2 |
| 20260506192142 | 55 | 248 | 4.0 | 0.0 | 0.00 | 0.00 | 0.00 | 48 | 1005.3 |
| 20260506191909 | 55 | 225 | 3.0 | 0.0 | 0.00 | 0.00 | 0.00 | 48 | 1005.2 |
| 20260506191712 | 55 | 248 | 3.0 | 0.0 | 0.00 | 0.00 | 0.00 | 50 | 1005.1 |
| 20260506191308 | 55 | 248 | 6.0 | 0.0 | 0.00 | 0.00 | 0.00 | 51 | 1005.0 |
| 20260506191127 | 55 | 248 | 6.0 | 0.0 | 0.00 | 0.00 | 0.00 | 51 | 1005.1 |
| 20260506190907 | 55 | 248 | 3.0 | 0.0 | 0.00 | 0.00 | 0.00 | 51 | 1005.0 |
| 20260506190708 | 55 | 270 | 4.0 | 0.0 | 0.00 | 0.00 | 0.00 | 50 | 1004.9 |
| 20260506190512 | 55 | 270 | 3.0 | 0.0 | 0.00 | 0.00 | 0.00 | 49 | 1004.9 |
| 20260506190308 | 55 | 270 | 3.0 | 0.0 | 0.00 | 0.00 | 0.00 | 51 | 1004.8 |
| 20260506190109 | 55 | 270 | 2.0 | 0.0 | 0.00 | 0.00 | 0.00 | 53 | 1004.8 |
| 20260506185931 | 55 | 248 | 3.0 | 0.0 | 0.00 | 0.00 | 0.00 | 53 | 1004.8 |
| 20260506185611 | 55 | 248 | 6.0 | 0.0 | 0.00 | 0.00 | 0.00 | 53 | 1004.7 |
| 20260506185409 | 55 | 270 | 2.0 | 0.0 | 0.00 | 0.00 | 0.00 | 52 | 1004.7 |
| 20260506185208 | 55 | 248 | 5.0 | 0.0 | 0.00 | 0.00 | 0.00 | 52 | 1004.7 |
| 20260506185015 | 56 | 270 | 3.0 | 0.0 | 0.00 | 0.00 | 0.00 | 52 | 1004.6 |
| 20260506184808 | 56 | 248 | 2.0 | 0.0 | 0.00 | 0.00 | 0.00 | 52 | 1004.6 |
| 20260506184709 | 56 | 248 | 3.0 | 0.0 | 0.00 | 0.00 | 0.00 | 51 | 1004.6 |
| 20260506184409 | 56 | 248 | 5.0 | 0.0 | 0.00 | 0.00 | 0.00 | 51 | 1004.5 |
| 20260506184212 | 56 | 248 | 10.0 | 0.0 | 0.00 | 0.00 | 0.00 | 50 | 1004.4 |
| 20260506184010 | 55 | 248 | 1.0 | 0.0 | 0.00 | 0.00 | 0.00 | 52 | 1004.5 |
| 20260506183849 | 55 | 248 | 1.0 | 0.0 | 0.00 | 0.00 | 0.00 | 52 | 1004.5 |
| 20260506183609 | 55 | 270 | 2.0 | 0.0 | 0.00 | 0.00 | 0.00 | 53 | 1004.4 |
| 20260506183408 | 55 | 248 | 1.0 | 0.0 | 0.00 | 0.00 | 0.00 | 55 | 1004.3 |
| 20260506183206 | 55 | 270 | 0.0 | 0.0 | 0.00 | 0.00 | 0.00 | 56 | 1004.4 |
| 20260506183009 | 56 | 270 | 0.0 | 0.0 | 0.00 | 0.00 | 0.00 | 55 | 1004.3 |
| 20260506182812 | 56 | 248 | 5.0 | 0.0 | 0.00 | 0.00 | 0.00 | 55 | 1004.1 |
| 20260506182611 | 56 | 248 | 3.0 | 0.0 | 0.00 | 0.00 | 0.00 | 54 | 1004.2 |
| 20260506182412 | 55 | 270 | 4.0 | 0.0 | 0.00 | 0.00 | 0.00 | 54 | 1004.3 |
| 20260506182212 | 55 | 248 | 0.0 | 0.0 | 0.00 | 0.00 | 0.00 | 58 | 1004.1 |
| 20260506182006 | 55 | 292 | 1.0 | 0.0 | 0.00 | 0.00 | 0.00 | 59 | 1004.2 |
| 20260506181907 | 55 | 292 | 1.0 | 0.0 | 0.00 | 0.00 | 0.00 | 59 | 1004.1 |
| 20260506181713 | 55 | 270 | 1.0 | 0.0 | 0.00 | 0.00 | 0.00 | 59 | 1004.1 |
| 20260506181409 | 56 | 270 | 0.0 | 0.0 | 0.00 | 0.00 | 0.00 | 59 | 1004.2 |
| 20260506181206 | 56 | 248 | 1.0 | 0.0 | 0.00 | 0.00 | 0.00 | 59 | 1004.1 |
| 20260506181008 | 56 | 270 | 1.0 | 0.0 | 0.00 | 0.00 | 0.00 | 60 | 1004.2 |
| 20260506180841 | 56 | 270 | 3.0 | 0.0 | 0.00 | 0.00 | 0.00 | 60 | 1004.1 |
| 20260506180608 | 56 | 270 | 4.0 | 0.0 | 0.00 | 0.00 | 0.00 | 61 | 1004.1 |
| 20260506180412 | 56 | 270 | 0.0 | 0.0 | 0.00 | 0.00 | 0.00 | 61 | 1004.0 |
| 20260506180207 | 56 | 270 | 2.0 | 0.0 | 0.00 | 0.00 | 0.00 | 61 | 1004.0 |
| 20260506175928 | 56 | 270 | 0.0 | 0.0 | 0.00 | 0.00 | 0.00 | 61 | 1004.0 |
| 20260506175612 | 56 | 270 | 0.0 | 0.0 | 0.00 | 0.00 | 0.00 | 60 | 1004.0 |
| 20260506175410 | 56 | 270 | 0.0 | 0.0 | 0.00 | 0.00 | 0.00 | 61 | 1004.1 |
| 20260506175211 | 56 | 292 | 0.0 | 0.0 | 0.00 | 0.00 | 0.00 | 61 | 1004.0 |
| 20260506174908 | 57 | 248 | 0.0 | 0.0 | 0.00 | 0.00 | 0.00 | 62 | 1004.2 |
| 20260506174707 | 57 | 270 | 0.0 | 0.0 | 0.00 | 0.00 | 0.00 | 61 | 1004.1 |
| 20260506174413 | 57 | 270 | 2.0 | 0.0 | 0.00 | 0.00 | 0.00 | 61 | 1004.0 |
| 20260506174209 | 57 | 270 | 0.0 | 0.0 | 0.00 | 0.00 | 0.00 | 61 | 1004.0 |
| 20260506174012 | 57 | 248 | 0.0 | 0.0 | 0.00 | 0.00 | 0.00 | 61 | 1004.0 |
| 20260506173811 | 57 | 270 | 0.0 | 0.0 | 0.00 | 0.00 | 0.00 | 61 | 1004.0 |
| 20260506173611 | 58 | 248 | 1.0 | 0.0 | 0.00 | 0.00 | 0.00 | 61 | 1004.0 |
| 20260506173420 | 58 | 248 | 1.0 | 0.0 | 0.00 | 0.00 | 0.00 | 61 | 1003.9 |
| 20260506173216 | 58 | 270 | 0.0 | 0.0 | 0.00 | 0.00 | 0.00 | 60 | 1003.9 |
| 20260506173009 | 58 | 248 | 0.0 | 0.0 | 0.00 | 0.00 | 0.00 | 59 | 1003.9 |
| 20260506172810 | 59 | 270 | 0.0 | 0.0 | 0.00 | 0.00 | 0.00 | 59 | 1003.9 |
| 20260506172607 | 59 | 270 | 0.0 | 0.0 | 0.00 | 0.00 | 0.00 | 58 | 1003.8 |
| 20260506172406 | 59 | 270 | 0.0 | 0.0 | 0.00 | 0.00 | 0.00 | 58 | 1003.7 |
| 20260506172308 | 59 | 270 | 0.0 | 0.0 | 0.00 | 0.00 | 0.00 | 58 | 1003.7 |
| 20260506172111 | 59 | 270 | 0.0 | 0.0 | 0.00 | 0.00 | 0.00 | 58 | 1003.7 |
| 20260506171911 | 60 | 270 | 0.0 | 0.0 | 0.00 | 0.00 | 0.00 | 58 | 1003.8 |
| 20260506171709 | 60 | 248 | 0.0 | 0.0 | 0.00 | 0.00 | 0.00 | 57 | 1003.7 |
| 20260506171509 | 60 | 248 | 0.0 | 0.0 | 0.00 | 0.00 | 0.00 | 56 | 1003.7 |
| 20260506171313 | 61 | 248 | 0.0 | 0.0 | 0.00 | 0.00 | 0.00 | 56 | 1003.7 |
| 20260506171111 | 61 | 292 | 0.0 | 0.0 | 0.00 | 0.00 | 0.00 | 54 | 1003.7 |
| 20260506170809 | 61 | 270 | 0.0 | 0.0 | 0.00 | 0.00 | 0.00 | 54 | 1003.6 |
| 20260506170610 | 61 | 270 | 0.0 | 0.0 | 0.00 | 0.00 | 0.00 | 53 | 1003.6 |
| 20260506170410 | 61 | 270 | 0.0 | 0.0 | 0.00 | 0.00 | 0.00 | 48 | 1003.6 |
| 20260506170209 | 62 | 248 | 0.0 | 0.0 | 0.00 | 0.00 | 0.00 | 48 | 1003.5 |
| 20260506165929 | 62 | 248 | 0.0 | 0.0 | 0.00 | 0.00 | 0.00 | 48 | 1003.4 |
| 20260506165607 | 62 | 338 | 6.0 | 0.0 | 0.00 | 0.00 | 0.00 | 48 | 1003.3 |
| 20260506165511 | 62 | 338 | 6.0 | 0.0 | 0.00 | 0.00 | 0.00 | 48 | 1003.4 |
| 20260506165310 | 61 | 338 | 6.0 | 0.0 | 0.00 | 0.00 | 0.00 | 48 | 1003.3 |
| 20260506165112 | 61 | 338 | 6.0 | 0.0 | 0.00 | 0.00 | 0.00 | 49 | 1003.2 |
| 20260506164908 | 61 | 90 | 0.0 | 0.0 | 0.00 | 0.00 | 0.00 | 49 | 1003.2 |
| 20260506164708 | 61 | 292 | 0.0 | 0.0 | 0.00 | 0.00 | 0.00 | 51 | 1003.4 |
| 20260506164508 | 61 | 248 | 0.0 | 0.0 | 0.00 | 0.00 | 0.00 | 51 | 1003.3 |
| 20260506164310 | 61 | 248 | 0.0 | 0.0 | 0.00 | 0.00 | 0.00 | 51 | 1003.3 |
| 20260506164211 | 61 | 270 | 0.0 | 0.0 | 0.00 | 0.00 | 0.00 | 50 | 1003.3 |
| 20260506164016 | 61 | 270 | 0.0 | 0.0 | 0.00 | 0.00 | 0.00 | 50 | 1003.3 |
| 20260506163808 | 61 | 248 | 2.0 | 0.0 | 0.00 | 0.00 | 0.00 | 50 | 1003.3 |
| 20260506163633 | 61 | 248 | 5.0 | 0.0 | 0.00 | 0.00 | 0.00 | 50 | 1003.3 |
| 20260506163210 | 62 | 248 | 3.0 | 0.0 | 0.00 | 0.00 | 0.00 | 49 | 1003.3 |
| 20260506162911 | 62 | 248 | 1.0 | 0.0 | 0.00 | 0.00 | 0.00 | 47 | 1003.3 |
| 20260506162715 | 62 | 248 | 0.0 | 0.0 | 0.00 | 0.00 | 0.00 | 47 | 1003.3 |
| 20260506162512 | 62 | 292 | 2.0 | 0.0 | 0.00 | 0.00 | 0.00 | 48 | 1003.3 |
| 20260506162311 | 63 | 248 | 2.0 | 0.0 | 0.00 | 0.00 | 0.00 | 47 | 1003.4 |
| 20260506162113 | 63 | 248 | 0.0 | 0.0 | 0.00 | 0.00 | 0.00 | 47 | 1003.3 |
| 20260506161908 | 63 | 248 | 0.0 | 0.0 | 0.00 | 0.00 | 0.00 | 49 | 1003.3 |
| 20260506161744 | 63 | 248 | 0.0 | 0.0 | 0.00 | 0.00 | 0.00 | 49 | 1003.4 |
| 20260506161413 | 64 | 315 | 7.0 | 0.0 | 0.00 | 0.00 | 0.00 | 46 | 1003.5 |
| 20260506161209 | 64 | 315 | 7.0 | 0.0 | 0.00 | 0.00 | 0.00 | 46 | 1003.6 |
| 20260506161012 | 64 | 315 | 7.0 | 0.0 | 0.00 | 0.00 | 0.00 | 46 | 1003.6 |
| 20260506160807 | 64 | 315 | 7.0 | 0.0 | 0.00 | 0.00 | 0.00 | 46 | 1003.6 |
| 20260506160611 | 65 | 270 | 0.0 | 0.0 | 0.00 | 0.00 | 0.00 | 46 | 1003.6 |
| 20260506160409 | 65 | 270 | 0.0 | 0.0 | 0.00 | 0.00 | 0.00 | 47 | 1003.6 |
| 20260506160206 | 65 | 270 | 0.0 | 0.0 | 0.00 | 0.00 | 0.00 | 46 | 1003.6 |
| 20260506155929 | 64 | 270 | 3.0 | 0.0 | 0.00 | 0.00 | 0.00 | 46 | 1003.6 |
| 20260506155608 | 64 | 270 | 0.0 | 0.0 | 0.00 | 0.00 | 0.00 | 46 | 1003.6 |
| 20260506155409 | 64 | 270 | 0.0 | 0.0 | 0.00 | 0.00 | 0.00 | 47 | 1003.7 |
| 20260506155208 | 64 | 270 | 0.0 | 0.0 | 0.00 | 0.00 | 0.00 | 46 | 1003.7 |
| 20260506155007 | 65 | 292 | 0.0 | 0.0 | 0.00 | 0.00 | 0.00 | 46 | 1003.7 |
| 20260506154810 | 65 | 292 | 0.0 | 0.0 | 0.00 | 0.00 | 0.00 | 46 | 1003.6 |
| 20260506154508 | 65 | 292 | 0.0 | 0.0 | 0.00 | 0.00 | 0.00 | 46 | 1003.7 |
| 20260506154307 | 65 | 248 | 2.0 | 0.0 | 0.00 | 0.00 | 0.00 | 45 | 1003.8 |
| 20260506154108 | 65 | 248 | 1.0 | 0.0 | 0.00 | 0.00 | 0.00 | 45 | 1003.6 |
| 20260506153908 | 65 | 315 | 0.0 | 0.0 | 0.00 | 0.00 | 0.00 | 45 | 1003.7 |
| 20260506153708 | 65 | 315 | 0.0 | 0.0 | 0.00 | 0.00 | 0.00 | 45 | 1003.6 |
| 20260506153512 | 65 | 225 | 0.0 | 0.0 | 0.00 | 0.00 | 0.00 | 46 | 1003.6 |
| 20260506153311 | 66 | 225 | 0.0 | 0.0 | 0.00 | 0.00 | 0.00 | 46 | 1003.6 |
| 20260506153108 | 66 | 68 | 2.0 | 0.0 | 0.00 | 0.00 | 0.00 | 46 | 1003.7 |
| 20260506152907 | 66 | 112 | 0.0 | 0.0 | 0.00 | 0.00 | 0.00 | 47 | 1003.6 |
| 20260506152710 | 66 | 248 | 0.0 | 0.0 | 0.00 | 0.00 | 0.00 | 47 | 1003.6 |
| 20260506152506 | 66 | 248 | 0.0 | 0.0 | 0.00 | 0.00 | 0.00 | 47 | 1003.7 |
| 20260506152311 | 66 | 248 | 0.0 | 0.0 | 0.00 | 0.00 | 0.00 | 47 | 1003.6 |
| 20260506152111 | 65 | 248 | 0.0 | 0.0 | 0.00 | 0.00 | 0.00 | 48 | 1003.6 |
| 20260506151909 | 65 | 248 | 0.0 | 0.0 | 0.00 | 0.00 | 0.00 | 49 | 1003.6 |
| 20260506151713 | 65 | 248 | 0.0 | 0.0 | 0.00 | 0.00 | 0.00 | 49 | 1003.7 |
| 20260506151411 | 64 | 292 | 6.0 | 0.0 | 0.00 | 0.00 | 0.00 | 52 | 1003.6 |
| 20260506151209 | 64 | 292 | 6.0 | 0.0 | 0.00 | 0.00 | 0.00 | 52 | 1003.6 |
| 20260506151012 | 64 | 292 | 6.0 | 0.0 | 0.00 | 0.00 | 0.00 | 52 | 1003.5 |
| 20260506150807 | 64 | 248 | 0.0 | 0.0 | 0.00 | 0.00 | 0.00 | 52 | 1003.5 |
| 20260506150610 | 64 | 225 | 4.0 | 0.0 | 0.00 | 0.00 | 0.00 | 52 | 1003.5 |
| 20260506150414 | 64 | 225 | 4.0 | 0.0 | 0.00 | 0.00 | 0.00 | 52 | 1003.4 |
| 20260506150206 | 64 | 248 | 2.0 | 0.0 | 0.00 | 0.00 | 0.00 | 49 | 1003.3 |
| 20260506145928 | 64 | 270 | 0.0 | 0.0 | 0.00 | 0.00 | 0.00 | 45 | 1003.3 |
| 20260506145607 | 65 | 180 | 0.0 | 0.0 | 0.00 | 0.00 | 0.00 | 41 | 1003.3 |
| 20260506145408 | 65 | 180 | 0.0 | 0.0 | 0.00 | 0.00 | 0.00 | 41 | 1003.3 |
| 20260506145207 | 66 | 292 | 8.0 | 0.0 | 0.00 | 0.00 | 0.00 | 40 | 1003.1 |
| 20260506145010 | 67 | 248 | 5.0 | 0.0 | 0.00 | 0.00 | 0.00 | 39 | 1003.1 |
| 20260506144914 | 67 | 248 | 5.0 | 0.0 | 0.00 | 0.00 | 0.00 | 39 | 1003.0 |
| 20260506144713 | 67 | 248 | 5.0 | 0.0 | 0.00 | 0.00 | 0.00 | 39 | 1002.8 |
| 20260506144513 | 68 | 270 | 0.0 | 0.0 | 0.00 | 0.00 | 0.00 | 38 | 1002.8 |
| 20260506144313 | 68 | 315 | 2.0 | 0.0 | 0.00 | 0.00 | 0.00 | 38 | 1002.7 |
| 20260506144111 | 68 | 292 | 0.0 | 0.0 | 0.00 | 0.00 | 0.00 | 38 | 1002.5 |
| 20260506143911 | 69 | 0 | 4.0 | 0.0 | 0.00 | 0.00 | 0.00 | 37 | 1002.5 |
| 20260506143714 | 69 | 45 | 3.0 | 0.0 | 0.00 | 0.00 | 0.00 | 37 | 1002.3 |
| 20260506143512 | 69 | 45 | 2.0 | 0.0 | 0.00 | 0.00 | 0.00 | 37 | 1002.3 |
| 20260506143313 | 69 | 68 | 1.0 | 0.0 | 0.00 | 0.00 | 0.00 | 37 | 1002.3 |
| 20260506143113 | 69 | 315 | 5.0 | 0.0 | 0.00 | 0.00 | 0.00 | 36 | 1002.2 |
| 20260506142912 | 70 | 315 | 5.0 | 0.0 | 0.00 | 0.00 | 0.00 | 37 | 1002.2 |
| 20260506142710 | 70 | 338 | 0.0 | 0.0 | 0.00 | 0.00 | 0.00 | 37 | 1002.2 |
| 20260506142508 | 70 | 338 | 0.0 | 0.0 | 0.00 | 0.00 | 0.00 | 37 | 1002.2 |
| 20260506142307 | 70 | 338 | 0.0 | 0.0 | 0.00 | 0.00 | 0.00 | 37 | 1002.1 |
| 20260506142109 | 70 | 0 | 0.0 | 0.0 | 0.00 | 0.00 | 0.00 | 39 | 1002.1 |
| 20260506141911 | 70 | 68 | 0.0 | 0.0 | 0.00 | 0.00 | 0.00 | 39 | 1002.1 |
| 20260506141712 | 70 | 338 | 0.0 | 0.0 | 0.00 | 0.00 | 0.00 | 39 | 1002.0 |
| 20260506141511 | 70 | 45 | 0.0 | 0.0 | 0.00 | 0.00 | 0.00 | 39 | 1002.1 |
| 20260506141306 | 70 | 45 | 0.0 | 0.0 | 0.00 | 0.00 | 0.00 | 40 | 1002.0 |
| 20260506141105 | 70 | 45 | 0.0 | 0.0 | 0.00 | 0.00 | 0.00 | 40 | 1002.0 |
| 20260506140916 | 70 | 45 | 0.0 | 0.0 | 0.00 | 0.00 | 0.00 | 40 | 1002.1 |
| 20260506140813 | 70 | 45 | 0.0 | 0.0 | 0.00 | 0.00 | 0.00 | 40 | 1002.1 |
| 20260506140608 | 70 | 0 | 3.0 | 0.0 | 0.00 | 0.00 | 0.00 | 41 | 1002.0 |
| 20260506140412 | 70 | 45 | 0.0 | 0.0 | 0.00 | 0.00 | 0.00 | 40 | 1002.0 |
| 20260506140207 | 70 | 45 | 0.0 | 0.0 | 0.00 | 0.00 | 0.00 | 40 | 1002.0 |
| 20260506140011 | 70 | 22 | 0.0 | 0.0 | 0.00 | 0.00 | 0.00 | 39 | 1002.0 |
| 20260506135809 | 70 | 22 | 0.0 | 0.0 | 0.00 | 0.00 | 0.00 | 39 | 1002.0 |
| 20260506135606 | 70 | 225 | 0.0 | 0.0 | 0.00 | 0.00 | 0.00 | 39 | 1002.1 |
| 20260506135510 | 70 | 225 | 0.0 | 0.0 | 0.00 | 0.00 | 0.00 | 39 | 1002.1 |
| 20260506135309 | 70 | 225 | 0.0 | 0.0 | 0.00 | 0.00 | 0.00 | 39 | 1002.1 |
| 20260506135107 | 70 | 270 | 0.0 | 0.0 | 0.00 | 0.00 | 0.00 | 39 | 1002.1 |
| 20260506134915 | 70 | 180 | 0.0 | 0.0 | 0.00 | 0.00 | 0.00 | 40 | 1002.2 |
| 20260506134707 | 70 | 68 | 57.0 | 0.0 | 0.00 | 0.00 | 0.00 | 39 | 1002.1 |
| 20260506134407 | 70 | 338 | 0.0 | 0.0 | 0.00 | 0.00 | 0.00 | 37 | 1002.2 |
| 20260506134209 | 70 | 315 | 4.0 | 0.0 | 0.00 | 0.00 | 0.00 | 37 | 1002.2 |
| 20260506134008 | 69 | 315 | 4.0 | 0.0 | 0.00 | 0.00 | 0.00 | 37 | 1002.4 |
| 20260506133808 | 69 | 292 | 0.0 | 0.0 | 0.00 | 0.00 | 0.00 | 37 | 1002.3 |
| 20260506133608 | 69 | 45 | 0.0 | 0.0 | 0.00 | 0.00 | 0.00 | 37 | 1002.5 |
| 20260506133406 | 69 | 68 | 0.0 | 0.0 | 0.00 | 0.00 | 0.00 | 37 | 1002.5 |
| 20260506133210 | 69 | 135 | 0.0 | 0.0 | 0.00 | 0.00 | 0.00 | 37 | 1002.5 |
| 20260506133012 | 69 | 338 | 0.0 | 0.0 | 0.00 | 0.00 | 0.00 | 36 | 1002.5 |
| 20260506132810 | 69 | 292 | 0.0 | 0.0 | 0.00 | 0.00 | 0.00 | 36 | 1002.5 |
| 20260506132613 | 69 | 292 | 0.0 | 0.0 | 0.00 | 0.00 | 0.00 | 36 | 1002.6 |
| 20260506132308 | 70 | 270 | 0.0 | 0.0 | 0.00 | 0.00 | 0.00 | 36 | 1002.5 |
| 20260506132112 | 70 | 248 | 0.0 | 0.0 | 0.00 | 0.00 | 0.00 | 36 | 1002.5 |
| 20260506131907 | 70 | 270 | 0.0 | 0.0 | 0.00 | 0.00 | 0.00 | 35 | 1002.5 |
| 20260506131712 | 70 | 22 | 0.0 | 0.0 | 0.00 | 0.00 | 0.00 | 35 | 1002.5 |
| 20260506131512 | 71 | 22 | 0.0 | 0.0 | 0.00 | 0.00 | 0.00 | 35 | 1002.5 |
| 20260506131308 | 71 | 22 | 0.0 | 0.0 | 0.00 | 0.00 | 0.00 | 36 | 1002.4 |
| 20260506131014 | 71 | 22 | 0.0 | 0.0 | 0.00 | 0.00 | 0.00 | 36 | 1002.4 |
| 20260506130811 | 70 | 158 | 0.0 | 0.0 | 0.00 | 0.00 | 0.00 | 36 | 1002.5 |
| 20260506130610 | 70 | 45 | 0.0 | 0.0 | 0.00 | 0.00 | 0.00 | 36 | 1002.5 |
| 20260506130413 | 70 | 45 | 0.0 | 0.0 | 0.00 | 0.00 | 0.00 | 36 | 1002.6 |
| 20260506130208 | 70 | 45 | 0.0 | 0.0 | 0.00 | 0.00 | 0.00 | 36 | 1002.5 |
| 20260506130011 | 69 | 292 | 0.0 | 0.0 | 0.00 | 0.00 | 0.00 | 37 | 1002.5 |
| 20260506125708 | 69 | 225 | 0.0 | 0.0 | 0.00 | 0.00 | 0.00 | 36 | 1002.4 |
| 20260506125508 | 69 | 225 | 0.0 | 0.0 | 0.00 | 0.00 | 0.00 | 36 | 1002.2 |
| 20260506125312 | 69 | 315 | 0.0 | 0.0 | 0.00 | 0.00 | 0.00 | 36 | 1002.2 |
| 20260506125108 | 69 | 270 | 0.0 | 0.0 | 0.00 | 0.00 | 0.00 | 36 | 1002.2 |
| 20260506124908 | 69 | 292 | 0.0 | 0.0 | 0.00 | 0.00 | 0.00 | 36 | 1002.1 |
| 20260506124710 | 69 | 248 | 0.0 | 0.0 | 0.00 | 0.00 | 0.00 | 36 | 1002.1 |
| 20260506124515 | 69 | 292 | 2.0 | 0.0 | 0.00 | 0.00 | 0.00 | 38 | 1002.1 |
| 20260506124207 | 69 | 270 | 0.0 | 0.0 | 0.00 | 0.00 | 0.00 | 38 | 1002.2 |
| 20260506124011 | 69 | 270 | 0.0 | 0.0 | 0.00 | 0.00 | 0.00 | 38 | 1002.2 |
| 20260506123812 | 69 | 292 | 0.0 | 0.0 | 0.00 | 0.00 | 0.00 | 39 | 1002.3 |
| 20260506123618 | 69 | 292 | 0.0 | 0.0 | 0.00 | 0.00 | 0.00 | 40 | 1002.2 |
| 20260506123408 | 69 | 202 | 0.0 | 0.0 | 0.00 | 0.00 | 0.00 | 37 | 1002.3 |
| 20260506123208 | 68 | 292 | 0.0 | 0.0 | 0.00 | 0.00 | 0.00 | 37 | 1002.3 |
| 20260506122907 | 68 | 292 | 2.0 | 0.0 | 0.00 | 0.00 | 0.00 | 37 | 1002.2 |
| 20260506122709 | 68 | 248 | 0.0 | 0.0 | 0.00 | 0.00 | 0.00 | 37 | 1002.3 |
| 20260506122511 | 68 | 248 | 0.0 | 0.0 | 0.00 | 0.00 | 0.00 | 37 | 1002.2 |
| 20260506122306 | 68 | 270 | 0.0 | 0.0 | 0.00 | 0.00 | 0.00 | 37 | 1002.3 |
| 20260506122110 | 68 | 270 | 3.0 | 0.0 | 0.00 | 0.00 | 0.00 | 37 | 1002.4 |
| 20260506121908 | 68 | 270 | 8.0 | 0.0 | 0.00 | 0.00 | 0.00 | 37 | 1002.4 |
| 20260506121708 | 68 | 270 | 5.0 | 0.0 | 0.00 | 0.00 | 0.00 | 38 | 1002.4 |
| 20260506121508 | 68 | 248 | 4.0 | 0.0 | 0.00 | 0.00 | 0.00 | 38 | 1002.4 |
| 20260506121323 | 68 | 248 | 0.0 | 0.0 | 0.00 | 0.00 | 0.00 | 38 | 1002.5 |
| 20260506121108 | 68 | 315 | 0.0 | 0.0 | 0.00 | 0.00 | 0.00 | 38 | 1002.5 |
| 20260506120908 | 68 | 202 | 6.0 | 0.0 | 0.00 | 0.00 | 0.00 | 38 | 1002.5 |
| 20260506120705 | 68 | 270 | 0.0 | 0.0 | 0.00 | 0.00 | 0.00 | 39 | 1002.5 |
| 20260506120511 | 68 | 270 | 0.0 | 0.0 | 0.00 | 0.00 | 0.00 | 39 | 1002.5 |
| 20260506120311 | 68 | 270 | 0.0 | 0.0 | 0.00 | 0.00 | 0.00 | 39 | 1002.5 |
| 20260506120008 | 67 | 248 | 4.0 | 0.0 | 0.00 | 0.00 | 0.00 | 39 | 1002.6 |
| 20260506115809 | 67 | 248 | 4.0 | 0.0 | 0.00 | 0.00 | 0.00 | 39 | 1002.6 |
| 20260506115613 | 67 | 248 | 2.0 | 0.0 | 0.00 | 0.00 | 0.00 | 39 | 1002.6 |
| 20260506115409 | 67 | 270 | 0.0 | 0.0 | 0.00 | 0.00 | 0.00 | 39 | 1002.6 |
| 20260506115207 | 67 | 248 | 5.0 | 0.0 | 0.00 | 0.00 | 0.00 | 39 | 1002.7 |
| 20260506115008 | 67 | 315 | 6.0 | 0.0 | 0.00 | 0.00 | 0.00 | 39 | 1002.9 |
| 20260506114808 | 67 | 315 | 6.0 | 0.0 | 0.00 | 0.00 | 0.00 | 39 | 1002.9 |
| 20260506114609 | 67 | 292 | 0.0 | 0.0 | 0.00 | 0.00 | 0.00 | 39 | 1003.0 |
| 20260506114409 | 67 | 292 | 5.0 | 0.0 | 0.00 | 0.00 | 0.00 | 38 | 1003.2 |
| 20260506114207 | 68 | 315 | 10.0 | 0.0 | 0.00 | 0.00 | 0.00 | 37 | 1003.2 |
| 20260506114006 | 68 | 292 | 1.0 | 0.0 | 0.00 | 0.00 | 0.00 | 37 | 1003.2 |
| 20260506113809 | 69 | 270 | 6.0 | 0.0 | 0.00 | 0.00 | 0.00 | 36 | 1003.2 |
| 20260506113605 | 69 | 270 | 0.0 | 0.0 | 0.00 | 0.00 | 0.00 | 36 | 1003.2 |
| 20260506113405 | 69 | 248 | 2.0 | 0.0 | 0.00 | 0.00 | 0.00 | 36 | 1003.2 |
| 20260506113311 | 69 | 248 | 2.0 | 0.0 | 0.00 | 0.00 | 0.00 | 36 | 1003.2 |
| 20260506113107 | 69 | 248 | 2.0 | 0.0 | 0.00 | 0.00 | 0.00 | 36 | 1003.2 |
| 20260506112909 | 69 | 248 | 1.0 | 0.0 | 0.00 | 0.00 | 0.00 | 35 | 1003.2 |
| 20260506112710 | 70 | 292 | 14.0 | 0.0 | 0.00 | 0.00 | 0.00 | 35 | 1003.2 |
| 20260506112508 | 70 | 270 | 0.0 | 0.0 | 0.00 | 0.00 | 0.00 | 35 | 1003.2 |
| 20260506112306 | 71 | 248 | 4.0 | 0.0 | 0.00 | 0.00 | 0.00 | 34 | 1003.0 |
| 20260506112107 | 71 | 270 | 0.0 | 0.0 | 0.00 | 0.00 | 0.00 | 34 | 1003.1 |
| 20260506111907 | 72 | 248 | 0.0 | 0.0 | 0.00 | 0.00 | 0.00 | 34 | 1003.1 |
| 20260506111705 | 72 | 248 | 0.0 | 0.0 | 0.00 | 0.00 | 0.00 | 34 | 1003.1 |
| 20260506111511 | 72 | 248 | 0.0 | 0.0 | 0.00 | 0.00 | 0.00 | 34 | 1003.2 |
| 20260506111309 | 72 | 248 | 0.0 | 0.0 | 0.00 | 0.00 | 0.00 | 34 | 1003.3 |
| 20260506111110 | 72 | 248 | 3.0 | 0.0 | 0.00 | 0.00 | 0.00 | 35 | 1003.2 |
| 20260506110913 | 72 | 248 | 0.0 | 0.0 | 0.00 | 0.00 | 0.00 | 35 | 1003.2 |
| 20260506110716 | 72 | 0 | 0.0 | 0.0 | 0.00 | 0.00 | 0.00 | 34 | 1003.2 |
| 20260506110508 | 72 | 0 | 0.0 | 0.0 | 0.00 | 0.00 | 0.00 | 34 | 1003.2 |
| 20260506110219 | 73 | 0 | 0.0 | 0.0 | 0.00 | 0.00 | 0.00 | 34 | 1003.2 |
| 20260506105912 | 73 | 248 | 0.0 | 0.0 | 0.00 | 0.00 | 0.00 | 34 | 1003.3 |
| 20260506105713 | 73 | 45 | 0.0 | 0.0 | 0.00 | 0.00 | 0.00 | 35 | 1003.3 |
| 20260506105507 | 72 | 0 | 0.0 | 0.0 | 0.00 | 0.00 | 0.00 | 35 | 1003.4 |
| 20260506105308 | 71 | 45 | 0.0 | 0.0 | 0.00 | 0.00 | 0.00 | 35 | 1003.3 |
| 20260506105119 | 71 | 45 | 0.0 | 0.0 | 0.00 | 0.00 | 0.00 | 36 | 1003.3 |
| 20260506104912 | 71 | 248 | 0.0 | 0.0 | 0.00 | 0.00 | 0.00 | 36 | 1003.4 |
| 20260506104710 | 71 | 248 | 0.0 | 0.0 | 0.00 | 0.00 | 0.00 | 36 | 1003.3 |
| 20260506104512 | 71 | 248 | 0.0 | 0.0 | 0.00 | 0.00 | 0.00 | 36 | 1003.3 |
| 20260506104311 | 71 | 248 | 0.0 | 0.0 | 0.00 | 0.00 | 0.00 | 36 | 1003.4 |
| 20260506104109 | 71 | 292 | 0.0 | 0.0 | 0.00 | 0.00 | 0.00 | 36 | 1003.4 |
| 20260506103917 | 70 | 68 | 0.0 | 0.0 | 0.00 | 0.00 | 0.00 | 36 | 1003.5 |
| 20260506103711 | 70 | 68 | 5.0 | 0.0 | 0.00 | 0.00 | 0.00 | 36 | 1003.5 |
| 20260506103512 | 70 | 0 | 5.0 | 0.0 | 0.00 | 0.00 | 0.00 | 36 | 1003.7 |
| 20260506103312 | 70 | 0 | 5.0 | 0.0 | 0.00 | 0.00 | 0.00 | 36 | 1003.7 |
| 20260506103111 | 70 | 270 | 0.0 | 0.0 | 0.00 | 0.00 | 0.00 | 37 | 1003.8 |
| 20260506102908 | 70 | 0 | 0.0 | 0.0 | 0.00 | 0.00 | 0.00 | 37 | 1003.8 |
| 20260506102711 | 69 | 0 | 0.0 | 0.0 | 0.00 | 0.00 | 0.00 | 37 | 1003.9 |
| 20260506102510 | 68 | 112 | 0.0 | 0.0 | 0.00 | 0.00 | 0.00 | 37 | 1003.9 |
| 20260506102315 | 69 | 338 | 5.0 | 0.0 | 0.00 | 0.00 | 0.00 | 37 | 1003.9 |
| 20260506102108 | 69 | 0 | 4.0 | 0.0 | 0.00 | 0.00 | 0.00 | 37 | 1003.9 |
| 20260506101913 | 69 | 0 | 4.0 | 0.0 | 0.00 | 0.00 | 0.00 | 38 | 1003.9 |
| 20260506101711 | 29 | 338 | 0.0 | 0.0 | 0.00 | 0.00 | 0.00 | 38 | 1004.0 |
| 20260506101509 | 69 | 68 | 0.0 | 0.0 | 0.00 | 0.00 | 0.00 | 40 | 1004.0 |
| 20260506101306 | 69 | 68 | 0.0 | 0.0 | 0.00 | 0.00 | 0.00 | 40 | 1004.0 |
| 20260506101111 | 69 | 68 | 0.0 | 0.0 | 0.00 | 0.00 | 0.00 | 40 | 1004.0 |
| 20260506100911 | 68 | 68 | 0.0 | 0.0 | 0.00 | 0.00 | 0.00 | 40 | 1004.0 |
| 20260506100611 | 68 | 270 | 0.0 | 0.0 | 0.00 | 0.00 | 0.00 | 41 | 1004.1 |
| 20260506100411 | 66 | 270 | 0.0 | 0.0 | 0.00 | 0.00 | 0.00 | 41 | 1004.2 |
| 20260506100208 | 66 | 270 | 0.0 | 0.0 | 0.00 | 0.00 | 0.00 | 41 | 1004.3 |
| 20260506100007 | 66 | 270 | 0.0 | 0.0 | 0.00 | 0.00 | 0.00 | 41 | 1004.3 |
| 20260506095812 | 66 | 270 | 0.0 | 0.0 | 0.00 | 0.00 | 0.00 | 41 | 1004.4 |
| 20260506095608 | 66 | 270 | 0.0 | 0.0 | 0.00 | 0.00 | 0.00 | 41 | 1004.4 |
| 20260506095508 | 66 | 270 | 0.0 | 0.0 | 0.00 | 0.00 | 0.00 | 41 | 1004.4 |